Time;durP1;ratioP1;P1;durP2;ratioP2;P2;SDS_P1;SDS_P2;PMS_P1;PMS_P2;Temp;Humidity;BMP_temperature;BMP_pressure;BME280_temperature;BME280_humidity;BME280_pressure;Samples;Min_cycle;Max_cycle;Signal;HPM_P1;HPM_P2
2022/04/06 00:00:58;;;;;;;10.65;8.13;;;9.00;99.90;;;;;;4951134;29;20503;-65
2022/04/06 00:03:26;;;;;;;10.32;7.50;;;8.90;99.90;;;;;;4952805;28;20514;-65
2022/04/06 00:05:54;;;;;;;11.43;7.85;;;8.90;99.90;;;;;;4952868;28;20046;-65
2022/04/06 00:08:21;;;;;;;10.18;7.53;;;8.90;99.90;;;;;;4952520;28;20075;-66
2022/04/06 00:10:48;;;;;;;11.25;7.13;;;9.00;99.90;;;;;;4951937;28;20047;-65
2022/04/06 00:13:15;;;;;;;11.70;7.50;;;8.90;99.90;;;;;;4950124;28;20049;-66
2022/04/06 00:15:43;;;;;;;10.88;7.65;;;9.00;99.90;;;;;;4951250;29;20102;-66
2022/04/06 00:18:10;;;;;;;10.55;7.35;;;9.00;99.90;;;;;;4966595;28;20039;-66
2022/04/06 00:20:38;;;;;;;9.65;6.90;;;9.00;99.90;;;;;;4952050;28;20134;-66
2022/04/06 00:23:05;;;;;;;10.73;7.80;;;9.00;99.90;;;;;;4951771;28;20051;-66
2022/04/06 00:25:33;;;;;;;9.60;6.65;;;9.00;99.90;;;;;;4952398;28;20541;-66
2022/04/06 00:28:00;;;;;;;9.68;6.95;;;9.00;99.90;;;;;;4949868;28;20050;-67
2022/04/06 00:30:27;;;;;;;10.95;7.80;;;9.00;99.90;;;;;;4952877;29;20047;-66
2022/04/06 00:32:55;;;;;;;11.50;7.30;;;9.00;99.90;;;;;;4948279;29;20039;-66
2022/04/06 00:35:28;;;;;;;9.18;6.95;;;8.90;99.90;;;;;;4951767;29;20051;-66
2022/04/06 00:38:01;;;;;;;12.38;7.47;;;8.90;99.90;;;;;;4946158;29;20546;-70
2022/04/06 00:40:29;;;;;;;9.45;6.93;;;9.00;99.90;;;;;;4939515;29;20390;-66
2022/04/06 00:42:57;;;;;;;9.48;6.97;;;9.00;99.90;;;;;;4950234;29;20079;-66
2022/04/06 00:45:25;;;;;;;9.27;6.32;;;9.00;99.90;;;;;;4949429;28;20582;-66
2022/04/06 00:47:53;;;;;;;9.63;6.70;;;9.10;99.90;;;;;;4951259;28;20082;-67
2022/04/06 00:50:23;;;;;;;10.93;7.22;;;9.00;99.90;;;;;;4938208;28;20055;-67
2022/04/06 00:52:57;;;;;;;9.35;6.30;;;9.00;99.90;;;;;;4951825;28;20071;-66
2022/04/06 00:55:36;;;;;;;8.82;6.65;;;9.10;99.90;;;;;;4948789;29;20075;-65
2022/04/06 00:58:05;;;;;;;10.93;7.00;;;9.10;99.90;;;;;;4949329;28;20039;-66
2022/04/06 01:00:32;;;;;;;9.23;6.63;;;9.10;99.90;;;;;;4951295;28;20130;-66
2022/04/06 01:03:00;;;;;;;8.93;6.85;;;9.10;99.90;;;;;;4949054;29;20050;-65
2022/04/06 01:05:28;;;;;;;9.70;6.57;;;9.10;99.90;;;;;;4949657;29;20147;-66
2022/04/06 01:07:56;;;;;;;9.10;6.50;;;9.10;99.90;;;;;;4945246;28;20523;-66
2022/04/06 01:10:24;;;;;;;10.23;6.03;;;9.00;99.90;;;;;;4952119;28;20043;-65
2022/04/06 01:12:52;;;;;;;12.38;7.22;;;9.10;99.90;;;;;;4948335;29;20495;-66
2022/04/06 01:15:20;;;;;;;8.73;6.53;;;9.00;99.90;;;;;;4941511;29;20098;-66
2022/04/06 01:17:48;;;;;;;10.90;6.72;;;9.00;99.90;;;;;;4947885;28;20075;-65
2022/04/06 01:20:15;;;;;;;10.70;7.13;;;9.00;99.90;;;;;;4946997;29;20540;-66
2022/04/06 01:22:43;;;;;;;10.13;6.63;;;9.00;99.90;;;;;;4949803;29;20139;-65
2022/04/06 01:25:10;;;;;;;9.52;6.85;;;9.00;99.90;;;;;;4944800;28;20043;-65
2022/04/06 01:27:38;;;;;;;9.55;6.88;;;9.00;99.90;;;;;;4948306;28;20142;-65
2022/04/06 01:30:06;;;;;;;9.95;6.68;;;9.00;99.90;;;;;;4947709;29;20031;-65
2022/04/06 01:32:35;;;;;;;9.95;6.63;;;8.80;99.90;;;;;;4949448;28;20105;-65
2022/04/06 01:35:05;;;;;;;9.45;6.35;;;8.80;99.90;;;;;;4949651;28;20051;-65
2022/04/06 01:37:34;;;;;;;8.93;6.60;;;8.80;99.90;;;;;;4950739;28;20055;-65
2022/04/06 01:40:04;;;;;;;11.18;6.93;;;8.80;99.90;;;;;;4951023;28;20416;-65
2022/04/06 01:42:32;;;;;;;9.38;6.88;;;8.80;99.90;;;;;;4941422;29;20135;-65
2022/04/06 01:45:00;;;;;;;9.90;7.25;;;8.70;99.90;;;;;;4948188;28;20055;-65
2022/04/06 01:47:27;;;;;;;11.02;7.13;;;8.70;99.90;;;;;;4944692;29;20095;-65
2022/04/06 01:52:40;;;;;;;11.95;7.70;;;8.60;99.90;;;;;;4953733;28;20139;-65
2022/04/06 01:55:13;;;;;;;9.13;7.03;;;8.60;99.90;;;;;;4955241;28;20051;-65
2022/04/06 01:57:42;;;;;;;10.50;7.50;;;8.50;99.90;;;;;;4946560;29;20095;-65
2022/04/06 02:00:15;;;;;;;13.25;7.32;;;8.50;99.90;;;;;;4947310;29;20134;-65
2022/04/06 02:02:47;;;;;;;10.32;7.30;;;8.50;99.90;;;;;;4954185;28;20042;-65
2022/04/06 02:05:15;;;;;;;10.93;7.37;;;8.50;99.90;;;;;;4952156;28;20098;-65
2022/04/06 02:07:43;;;;;;;11.50;7.20;;;8.50;99.90;;;;;;4953885;28;20670;-65
2022/04/06 02:10:11;;;;;;;13.25;7.55;;;8.50;99.90;;;;;;4953323;28;20574;-65
2022/04/06 02:12:40;;;;;;;11.80;8.05;;;8.50;99.90;;;;;;4953043;29;20463;-65
2022/04/06 02:15:14;;;;;;;10.35;7.50;;;8.40;99.90;;;;;;4952190;29;20098;-65
2022/04/06 02:17:43;;;;;;;10.45;7.63;;;8.50;99.90;;;;;;4954632;28;20062;-65
2022/04/06 02:20:11;;;;;;;10.43;7.45;;;8.40;99.90;;;;;;4953841;28;20055;-65
2022/04/06 02:22:41;;;;;;;13.02;7.88;;;8.40;99.90;;;;;;4954074;28;20062;-65
2022/04/06 02:25:09;;;;;;;10.43;7.70;;;8.40;99.90;;;;;;4955253;29;20134;-65
2022/04/06 02:27:47;;;;;;;10.10;7.93;;;8.40;99.90;;;;;;4954192;28;20051;-65
2022/04/06 02:30:17;;;;;;;11.60;7.95;;;8.40;99.90;;;;;;4953296;28;20329;-65
2022/04/06 02:32:45;;;;;;;11.00;7.30;;;8.40;99.90;;;;;;4953765;28;20066;-65
2022/04/06 02:35:13;;;;;;;10.80;8.07;;;8.40;99.90;;;;;;4952448;28;20461;-65
2022/04/06 02:37:43;;;;;;;10.43;7.70;;;8.40;99.90;;;;;;4953686;28;20716;-64
2022/04/06 02:40:12;;;;;;;12.45;7.53;;;8.50;99.90;;;;;;4953484;28;20402;-65
2022/04/06 02:42:39;;;;;;;10.68;8.48;;;8.40;99.90;;;;;;4953155;28;20082;-65
2022/04/06 02:45:08;;;;;;;11.90;7.72;;;8.50;99.90;;;;;;4954068;28;20481;-65
2022/04/06 02:47:36;;;;;;;12.48;8.00;;;8.50;99.90;;;;;;4944552;29;20035;-65
2022/04/06 02:50:05;;;;;;;12.02;9.20;;;8.50;99.90;;;;;;4954594;28;20479;-65
2022/04/06 02:52:33;;;;;;;14.35;9.07;;;8.50;99.90;;;;;;4952264;28;20130;-65
2022/04/06 02:55:00;;;;;;;12.18;8.43;;;8.40;99.90;;;;;;4954395;28;20051;-65
2022/04/06 02:57:27;;;;;;;11.60;8.63;;;8.50;99.90;;;;;;4951730;28;20070;-65
2022/04/06 02:59:55;;;;;;;11.10;8.85;;;8.40;99.90;;;;;;4953000;28;20043;-66
2022/04/06 03:02:22;;;;;;;10.98;8.65;;;8.40;99.90;;;;;;4951444;28;20142;-65
2022/04/06 03:04:49;;;;;;;11.80;9.10;;;8.40;99.90;;;;;;4942997;28;20047;-64
2022/04/06 03:07:18;;;;;;;13.35;9.30;;;8.30;99.90;;;;;;4951690;29;20047;-65
2022/04/06 03:09:45;;;;;;;11.68;8.98;;;8.30;99.90;;;;;;4958614;28;20055;-64
2022/04/06 03:12:13;;;;;;;11.63;9.32;;;8.30;99.90;;;;;;4949464;28;20054;-65
2022/04/06 03:14:40;;;;;;;11.68;9.18;;;8.30;99.90;;;;;;4941853;29;20052;-64
2022/04/06 03:17:08;;;;;;;14.13;9.73;;;8.40;99.90;;;;;;4950270;29;20522;-65
2022/04/06 03:19:35;;;;;;;12.63;9.75;;;8.40;99.90;;;;;;4952451;28;20522;-65
2022/04/06 03:22:03;;;;;;;11.82;9.23;;;8.40;99.90;;;;;;4952399;28;20047;-65
2022/04/06 03:24:30;;;;;;;12.05;9.50;;;8.40;99.90;;;;;;4952421;28;20130;-65
2022/04/06 03:26:57;;;;;;;13.32;9.68;;;8.40;99.90;;;;;;4953782;29;20039;-65
2022/04/06 03:29:25;;;;;;;12.45;9.90;;;8.30;99.90;;;;;;4952714;29;20043;-65
2022/04/06 03:31:53;;;;;;;13.55;10.07;;;8.40;99.90;;;;;;4944220;29;20134;-65
2022/04/06 03:34:21;;;;;;;13.23;9.95;;;8.40;99.90;;;;;;4953765;28;20134;-65
2022/04/06 03:36:48;;;;;;;13.00;10.00;;;8.40;99.90;;;;;;4952168;29;20498;-64
2022/04/06 03:39:15;;;;;;;14.00;10.20;;;8.40;99.90;;;;;;4952706;28;20058;-64
2022/04/06 03:41:43;;;;;;;14.52;10.20;;;8.30;99.90;;;;;;4952407;28;20102;-65
2022/04/06 03:44:10;;;;;;;13.15;9.60;;;8.30;99.90;;;;;;4953725;28;20047;-65
2022/04/06 03:46:37;;;;;;;11.50;9.23;;;8.30;99.90;;;;;;4953076;29;20051;-65
2022/04/06 03:49:07;;;;;;;14.05;10.25;;;8.40;99.90;;;;;;4954005;29;20035;-66
2022/04/06 03:51:35;;;;;;;13.40;10.10;;;8.30;99.90;;;;;;4953525;28;20550;-66
2022/04/06 03:54:03;;;;;;;13.35;10.75;;;8.40;99.90;;;;;;4946327;28;20042;-66
2022/04/06 03:56:30;;;;;;;14.15;9.73;;;8.40;99.90;;;;;;4952371;28;20411;-66
2022/04/06 03:58:58;;;;;;;10.80;8.45;;;8.30;99.90;;;;;;4953487;28;20213;-66
2022/04/06 04:01:25;;;;;;;14.25;10.40;;;8.40;99.90;;;;;;4949616;28;20373;-66
2022/04/06 04:03:53;;;;;;;12.55;9.82;;;8.40;99.90;;;;;;4947118;29;20049;-65
2022/04/06 04:06:20;;;;;;;13.15;10.00;;;8.40;99.90;;;;;;4948836;28;20039;-66
2022/04/06 04:08:47;;;;;;;12.35;10.15;;;8.40;99.90;;;;;;4945931;29;20047;-65
2022/04/06 04:11:15;;;;;;;14.50;11.10;;;8.40;99.90;;;;;;4945663;29;20130;-66
2022/04/06 04:13:42;;;;;;;15.40;11.52;;;8.30;99.90;;;;;;4953398;28;20062;-66
2022/04/06 04:16:09;;;;;;;16.85;10.82;;;8.30;99.90;;;;;;4949608;28;20486;-66
2022/04/06 04:18:36;;;;;;;13.93;10.52;;;8.30;99.90;;;;;;4939398;29;20531;-65
2022/04/06 04:23:49;;;;;;;16.17;10.02;;;8.40;99.90;;;;;;4942857;28;20098;-66
2022/04/06 04:26:17;;;;;;;15.32;10.05;;;8.40;99.90;;;;;;4948980;29;20130;-66
2022/04/06 04:28:44;;;;;;;14.60;9.25;;;8.40;99.90;;;;;;4947067;29;20554;-65
2022/04/06 04:31:11;;;;;;;15.13;9.30;;;8.40;99.90;;;;;;4952637;28;20474;-65
2022/04/06 04:33:39;;;;;;;14.65;9.55;;;8.50;99.90;;;;;;4953138;29;20047;-65
2022/04/06 04:36:06;;;;;;;14.55;9.75;;;8.50;99.90;;;;;;4961785;28;20528;-66
2022/04/06 04:38:34;;;;;;;14.55;9.63;;;8.60;99.90;;;;;;4951261;28;20178;-64
2022/04/06 04:41:01;;;;;;;12.52;9.02;;;8.60;99.90;;;;;;4952541;28;20043;-65
2022/04/06 04:43:28;;;;;;;15.18;10.15;;;8.50;99.90;;;;;;4950839;28;20051;-66
2022/04/06 04:45:56;;;;;;;13.60;9.60;;;8.50;99.90;;;;;;4946660;28;20133;-64
2022/04/06 04:48:24;;;;;;;13.07;9.55;;;8.50;99.90;;;;;;4940801;28;20043;-66
2022/04/06 04:50:51;;;;;;;12.50;8.90;;;8.50;99.90;;;;;;4951324;28;20415;-66
2022/04/06 04:53:19;;;;;;;14.13;9.45;;;8.50;99.90;;;;;;4951347;28;20065;-66
2022/04/06 04:55:46;;;;;;;12.18;9.13;;;8.50;99.90;;;;;;4947276;28;20086;-65
2022/04/06 04:58:13;;;;;;;12.75;9.48;;;8.50;99.90;;;;;;4940264;28;20040;-66
2022/04/06 05:00:41;;;;;;;11.45;9.23;;;8.50;99.90;;;;;;4944287;29;20044;-66
2022/04/06 05:03:08;;;;;;;16.40;9.43;;;8.50;99.90;;;;;;4951466;29;20061;-66
2022/04/06 05:05:39;;;;;;;11.80;9.18;;;8.50;99.90;;;;;;4941891;29;20085;-66
2022/04/06 05:08:07;;;;;;;13.05;9.38;;;8.50;99.90;;;;;;4950695;29;20067;-66
2022/04/06 05:10:34;;;;;;;11.52;9.27;;;8.60;99.90;;;;;;4943497;28;20039;-66
2022/04/06 05:13:04;;;;;;;12.40;9.60;;;8.60;99.90;;;;;;4949174;29;20046;-66
2022/04/06 05:15:31;;;;;;;11.75;9.10;;;8.60;99.90;;;;;;4943487;29;20153;-65
2022/04/06 05:17:59;;;;;;;12.30;8.45;;;8.60;99.90;;;;;;4951209;28;20043;-65
2022/04/06 05:20:26;;;;;;;13.73;9.85;;;8.70;99.90;;;;;;4944823;29;20057;-66
2022/04/06 05:22:54;;;;;;;14.15;8.73;;;8.70;99.90;;;;;;4952833;28;20051;-65
2022/04/06 05:25:21;;;;;;;14.30;9.05;;;8.80;99.90;;;;;;4953256;28;20062;-65
2022/04/06 05:27:51;;;;;;;11.98;9.00;;;8.80;99.90;;;;;;4947492;28;20046;-66
2022/04/06 05:30:20;;;;;;;14.35;9.85;;;8.80;99.90;;;;;;4935351;29;20047;-66
2022/04/06 05:32:49;;;;;;;12.88;9.93;;;8.80;99.90;;;;;;4953793;28;20448;-66
2022/04/06 05:35:16;;;;;;;14.07;9.68;;;8.80;99.90;;;;;;4938775;28;20078;-65
2022/04/06 05:37:45;;;;;;;13.88;10.32;;;8.80;99.90;;;;;;4945474;28;20490;-65
2022/04/06 05:40:14;;;;;;;18.95;11.10;;;8.80;99.90;;;;;;4933943;28;20054;-66
2022/04/06 05:42:42;;;;;;;15.63;10.20;;;8.80;99.90;;;;;;4933611;29;20046;-66
2022/04/06 05:45:10;;;;;;;14.57;10.07;;;8.90;99.90;;;;;;4936285;29;20062;-66
2022/04/06 05:47:38;;;;;;;15.38;9.77;;;8.90;99.90;;;;;;4933266;29;20044;-65
2022/04/06 05:50:07;;;;;;;13.98;9.63;;;8.90;99.90;;;;;;4935641;28;20046;-65
2022/04/06 05:52:35;;;;;;;14.48;9.60;;;9.00;99.90;;;;;;4947735;28;20150;-66
2022/04/06 05:55:03;;;;;;;13.65;9.73;;;8.90;99.90;;;;;;4949928;29;20053;-66
2022/04/06 05:57:31;;;;;;;12.95;9.35;;;8.90;99.90;;;;;;4949133;28;20039;-66
2022/04/06 05:59:58;;;;;;;13.50;9.68;;;9.00;99.90;;;;;;4941728;29;20046;-65
2022/04/06 06:02:26;;;;;;;15.05;9.43;;;9.00;99.90;;;;;;4951723;28;20050;-66
2022/04/06 06:04:53;;;;;;;13.07;9.00;;;9.10;99.90;;;;;;4945234;28;20591;-66
2022/04/06 06:07:21;;;;;;;14.20;9.82;;;9.10;99.90;;;;;;4947822;29;20110;-66
2022/04/06 06:09:49;;;;;;;13.80;9.60;;;9.10;99.90;;;;;;4934935;29;20035;-64
2022/04/06 06:12:16;;;;;;;12.57;9.32;;;9.20;99.90;;;;;;4938733;29;20864;-65
2022/04/06 06:14:44;;;;;;;12.82;9.55;;;9.20;99.90;;;;;;4951102;29;20410;-66
2022/04/06 06:17:11;;;;;;;13.32;9.15;;;9.20;99.90;;;;;;4946403;28;20062;-65
2022/04/06 06:19:38;;;;;;;13.68;9.70;;;9.20;99.90;;;;;;4940011;29;20053;-64
2022/04/06 06:22:06;;;;;;;13.60;9.63;;;9.10;99.90;;;;;;4943555;28;20129;-64
2022/04/06 06:24:33;;;;;;;10.73;8.57;;;9.10;99.90;;;;;;4952875;28;20102;-65
2022/04/06 06:27:00;;;;;;;10.00;8.13;;;9.20;99.90;;;;;;4950562;28;20463;-64
2022/04/06 06:29:28;;;;;;;11.82;8.77;;;9.20;99.90;;;;;;4949503;29;20048;-64
2022/04/06 06:31:55;;;;;;;12.82;8.73;;;9.20;99.90;;;;;;4937215;28;20531;-64
2022/04/06 06:34:22;;;;;;;12.90;8.90;;;9.30;99.90;;;;;;4938139;28;20047;-65
2022/04/06 06:36:50;;;;;;;12.27;8.50;;;9.40;99.90;;;;;;4947927;28;20704;-63
2022/04/06 06:39:17;;;;;;;11.23;8.45;;;9.50;99.90;;;;;;4953477;29;20519;-63
2022/04/06 06:41:45;;;;;;;10.77;8.02;;;9.50;99.90;;;;;;4953717;28;20355;-64
2022/04/06 06:44:12;;;;;;;10.65;8.18;;;9.70;99.90;;;;;;4945849;28;20135;-63
2022/04/06 06:46:39;;;;;;;11.32;8.13;;;9.80;99.90;;;;;;4949572;29;20048;-62
2022/04/06 06:49:08;;;;;;;12.10;8.18;;;9.80;99.90;;;;;;4954560;28;20383;-63
2022/04/06 06:51:35;;;;;;;13.75;8.80;;;9.80;99.90;;;;;;4950650;29;20051;-63
2022/04/06 06:54:03;;;;;;;11.23;7.70;;;9.90;99.90;;;;;;4953059;29;20051;-62
2022/04/06 06:56:31;;;;;;;12.88;8.18;;;10.00;99.90;;;;;;4944820;28;20122;-62
2022/04/06 06:58:58;;;;;;;12.77;8.85;;;10.00;99.90;;;;;;4954216;28;20043;-64
2022/04/06 07:01:25;;;;;;;11.75;7.63;;;10.00;99.90;;;;;;4953388;28;20051;-62
2022/04/06 07:03:53;;;;;;;11.48;8.02;;;10.10;99.90;;;;;;4939920;29;20043;-65
2022/04/06 07:06:20;;;;;;;11.43;7.53;;;10.10;99.90;;;;;;4966372;28;20097;-65
2022/04/06 07:08:47;;;;;;;10.43;7.55;;;10.20;99.90;;;;;;4969257;28;20151;-65
2022/04/06 07:11:14;;;;;;;10.68;7.28;;;10.20;99.90;;;;;;4951216;28;20502;-64
2022/04/06 07:13:42;;;;;;;9.75;7.00;;;10.30;99.90;;;;;;4949257;29;20066;-66
2022/04/06 07:16:10;;;;;;;10.95;7.70;;;10.30;99.90;;;;;;4951938;28;20063;-66
2022/04/06 07:18:38;;;;;;;10.20;7.18;;;10.40;99.90;;;;;;4949132;28;20047;-66
2022/04/06 07:21:05;;;;;;;8.82;6.47;;;10.40;99.90;;;;;;4947816;29;20051;-64
2022/04/06 07:23:33;;;;;;;12.32;7.63;;;10.50;99.90;;;;;;4967129;28;20066;-65
2022/04/06 07:26:00;;;;;;;9.65;7.03;;;10.50;99.90;;;;;;4953902;28;20536;-66
2022/04/06 07:28:27;;;;;;;10.50;7.18;;;10.50;99.90;;;;;;4953034;28;20055;-64
2022/04/06 07:30:55;;;;;;;9.10;6.95;;;10.60;99.90;;;;;;4941055;29;20067;-65
2022/04/06 07:33:27;;;;;;;11.98;7.07;;;10.80;99.90;;;;;;4945265;29;20047;-66
2022/04/06 07:35:54;;;;;;;9.68;7.00;;;10.80;99.90;;;;;;4946295;29;20043;-65
2022/04/06 07:38:21;;;;;;;9.80;6.55;;;10.70;99.90;;;;;;4950382;28;20043;-65
2022/04/06 07:40:49;;;;;;;9.35;6.40;;;10.60;99.90;;;;;;4951425;28;20066;-65
2022/04/06 07:43:16;;;;;;;11.05;7.15;;;10.60;99.90;;;;;;4950840;28;20086;-64
2022/04/06 07:45:43;;;;;;;9.38;6.90;;;10.70;99.90;;;;;;4945831;28;20172;-65
2022/04/06 07:48:11;;;;;;;8.95;6.68;;;10.70;99.90;;;;;;4951899;28;20487;-65
2022/04/06 07:50:43;;;;;;;12.15;6.97;;;10.70;99.90;;;;;;4940213;29;20031;-66
2022/04/06 07:53:11;;;;;;;12.88;6.93;;;10.70;99.90;;;;;;4935275;29;20522;-66
2022/04/06 07:55:38;;;;;;;9.35;6.45;;;10.80;99.90;;;;;;4939306;28;20483;-67
2022/04/06 07:58:06;;;;;;;10.90;7.15;;;10.80;99.90;;;;;;4951512;28;20166;-66
2022/04/06 08:00:33;;;;;;;9.65;6.75;;;10.80;99.90;;;;;;4952168;28;20468;-66
2022/04/06 08:03:01;;;;;;;10.95;6.75;;;10.80;99.90;;;;;;4952053;28;20062;-66
2022/04/06 08:05:28;;;;;;;11.48;7.25;;;10.70;99.90;;;;;;4951444;28;20043;-66
2022/04/06 08:07:56;;;;;;;9.50;6.43;;;10.60;99.90;;;;;;4951376;28;20138;-63
2022/04/06 08:10:23;;;;;;;13.45;6.88;;;10.60;99.90;;;;;;4952140;29;20111;-65
2022/04/06 08:12:51;;;;;;;10.00;6.78;;;10.60;99.90;;;;;;4950462;29;20106;-64
2022/04/06 08:15:18;;;;;;;13.35;6.93;;;10.50;99.90;;;;;;4947485;28;20067;-65
2022/04/06 08:17:47;;;;;;;13.27;6.60;;;10.50;99.90;;;;;;4949975;29;20474;-64
2022/04/06 08:20:16;;;;;;;7.88;6.22;;;10.60;99.90;;;;;;4944347;28;20495;-65
2022/04/06 08:22:46;;;;;;;12.52;6.72;;;10.60;99.90;;;;;;4950077;28;20043;-65
2022/04/06 08:25:17;;;;;;;7.63;5.13;;;10.70;99.90;;;;;;4952032;28;20043;-63
2022/04/06 08:28:05;;;;;;;11.00;6.75;;;10.70;99.90;;;;;;4951451;28;20063;-65
2022/04/06 08:30:39;;;;;;;10.38;5.85;;;10.90;99.90;;;;;;4952556;28;20055;-65
2022/04/06 08:33:09;;;;;;;11.80;6.00;;;10.90;99.90;;;;;;4950739;28;20462;-65
2022/04/06 08:35:37;;;;;;;7.43;5.15;;;11.00;99.90;;;;;;4952312;28;20065;-64
2022/04/06 08:38:05;;;;;;;9.20;5.57;;;11.00;99.90;;;;;;4950492;28;20049;-64
2022/04/06 08:40:33;;;;;;;9.88;5.22;;;11.00;99.90;;;;;;4951817;28;20450;-63
2022/04/06 08:43:01;;;;;;;8.77;5.30;;;11.10;99.90;;;;;;4951591;28;20399;-64
2022/04/06 08:45:28;;;;;;;8.90;5.70;;;11.00;99.90;;;;;;4949581;28;20503;-62
2022/04/06 08:47:59;;;;;;;8.27;5.30;;;10.90;99.90;;;;;;4951523;28;20483;-64
2022/04/06 08:50:29;;;;;;;7.05;5.07;;;10.90;99.90;;;;;;4951051;28;20049;-65
2022/04/06 08:52:57;;;;;;;12.68;6.10;;;10.90;99.90;;;;;;4966010;28;20492;-65
2022/04/06 08:55:32;;;;;;;8.40;5.57;;;11.00;99.90;;;;;;4952205;28;20063;-65
2022/04/06 08:58:00;;;;;;;8.27;4.70;;;11.00;99.90;;;;;;4943290;29;20451;-63
2022/04/06 09:00:28;;;;;;;7.00;4.78;;;11.30;99.90;;;;;;4950821;28;20098;-64
2022/04/06 09:02:55;;;;;;;8.30;5.15;;;11.50;99.90;;;;;;4943252;28;20043;-63
2022/04/06 09:05:26;;;;;;;8.00;5.10;;;11.60;99.90;;;;;;4939581;29;20047;-64
2022/04/06 09:07:54;;;;;;;8.57;5.10;;;11.70;99.90;;;;;;4947837;29;20039;-64
2022/04/06 09:10:41;;;;;;;7.97;4.72;;;11.60;99.90;;;;;;4950169;28;20047;-65
2022/04/06 09:13:12;;;;;;;7.40;4.72;;;11.60;99.90;;;;;;4943721;29;20048;-63
2022/04/06 09:15:41;;;;;;;8.02;4.65;;;11.60;99.90;;;;;;4939856;28;20040;-65
2022/04/06 09:18:09;;;;;;;7.40;4.63;;;11.70;99.90;;;;;;4950258;29;20154;-64
2022/04/06 09:20:36;;;;;;;7.65;4.75;;;11.80;99.90;;;;;;4951024;29;20086;-64
2022/04/06 09:23:05;;;;;;;9.35;4.57;;;11.80;99.90;;;;;;4950252;29;20418;-65
2022/04/06 09:25:37;;;;;;;6.85;4.47;;;11.60;99.90;;;;;;4952231;29;20098;-65
2022/04/06 09:28:10;;;;;;;6.80;4.60;;;11.60;99.90;;;;;;4952154;28;20047;-65
2022/04/06 09:30:45;;;;;;;9.65;4.97;;;11.50;99.90;;;;;;4950905;29;20106;-64
2022/04/06 09:33:14;;;;;;;6.57;3.95;;;11.50;99.90;;;;;;4950811;28;20070;-63
2022/04/06 09:35:42;;;;;;;7.00;4.30;;;11.40;99.90;;;;;;4948113;29;20053;-65
2022/04/06 09:38:14;;;;;;;7.07;4.65;;;11.40;99.90;;;;;;4949869;28;20078;-64
2022/04/06 09:40:42;;;;;;;5.72;3.63;;;11.40;99.90;;;;;;4950385;29;20539;-63
2022/04/06 09:43:27;;;;;;;7.63;4.50;;;11.60;99.90;;;;;;4951882;28;20138;-65
2022/04/06 09:49:14;;;;;;;8.05;5.03;;;11.80;99.90;;;;;;4941410;28;20054;-64
2022/04/06 09:51:52;;;;;;;10.40;4.20;;;11.80;99.90;;;;;;4937574;29;20043;-64
2022/04/06 09:54:20;;;;;;;8.10;4.55;;;11.80;99.90;;;;;;4950119;28;20051;-65
2022/04/06 09:56:47;;;;;;;7.72;4.10;;;12.00;99.90;;;;;;4946172;29;20077;-64
2022/04/06 09:59:15;;;;;;;6.70;4.47;;;12.10;99.90;;;;;;4950234;28;20043;-65
2022/04/06 10:01:48;;;;;;;8.90;4.90;;;12.20;99.90;;;;;;4946343;29;20503;-64
2022/04/06 10:04:24;;;;;;;8.15;4.68;;;12.30;99.90;;;;;;4949022;29;20051;-63
2022/04/06 10:06:52;;;;;;;7.63;4.03;;;12.10;99.90;;;;;;4949922;28;20043;-63
2022/04/06 10:09:20;;;;;;;6.35;4.15;;;12.00;99.90;;;;;;4950771;28;20043;-64
2022/04/06 10:11:51;;;;;;;9.20;4.40;;;12.10;99.90;;;;;;4946289;28;20043;-65
2022/04/06 10:14:19;;;;;;;;;;;11.90;99.90;;;;;;4954677;28;20807;-65
2022/04/06 10:16:47;;;;;;;5.95;4.25;;;12.00;99.90;;;;;;4954851;28;20170;-65
2022/04/06 10:19:18;;;;;;;6.70;3.95;;;12.20;99.90;;;;;;4952683;28;20106;-65
2022/04/06 10:21:45;;;;;;;6.95;3.88;;;12.60;99.90;;;;;;4953336;28;20043;-63
2022/04/06 10:24:26;;;;;;;7.30;4.03;;;13.10;99.90;;;;;;4954040;28;20047;-65
2022/04/06 10:27:31;;;;;;;11.35;4.82;;;13.20;99.90;;;;;;4956151;28;20122;-65
2022/04/06 10:30:18;;;;;;;7.00;3.80;;;13.10;99.90;;;;;;4958140;28;20048;-65
2022/04/06 10:32:51;;;;;;;6.85;4.43;;;13.50;99.90;;;;;;4951318;28;20051;-65
2022/04/06 10:35:34;;;;;;;8.13;4.18;;;14.00;99.90;;;;;;4944469;29;20079;-64
2022/04/06 10:38:05;;;;;;;6.72;4.28;;;14.10;99.90;;;;;;4948665;29;20043;-64
2022/04/06 10:40:47;;;;;;;5.85;3.72;;;14.10;99.90;;;;;;4953166;29;20040;-65
2022/04/06 10:43:38;;;;;;;6.00;3.60;;;14.20;99.90;;;;;;4954325;28;20122;-65
2022/04/06 10:46:10;;;;;;;5.82;3.70;;;14.00;99.90;;;;;;4949698;28;20047;-63
2022/04/06 10:48:57;;;;;;;7.10;3.95;;;14.00;99.90;;;;;;4953052;28;20039;-64
2022/04/06 10:51:33;;;;;;;5.38;3.20;;;13.90;99.90;;;;;;4952169;28;20047;-63
2022/04/06 10:54:13;;;;;;;5.70;3.38;;;13.90;99.90;;;;;;4947996;29;20032;-64
2022/04/06 10:56:49;;;;;;;5.32;3.20;;;13.70;99.90;;;;;;4953431;28;20130;-64
2022/04/06 10:59:17;;;;;;;5.45;3.15;;;13.40;99.90;;;;;;4954229;29;20042;-64
2022/04/06 11:01:46;;;;;;;7.03;3.38;;;13.40;99.90;;;;;;4952848;28;20150;-64
2022/04/06 11:04:22;;;;;;;5.45;3.25;;;13.70;99.90;;;;;;4952759;28;20047;-65
2022/04/06 11:06:55;;;;;;;5.00;2.88;;;14.00;99.90;;;;;;4944511;29;20095;-63
2022/04/06 11:12:28;;;;;;;5.88;3.47;;;14.70;99.90;;;;;;4951730;29;20483;-64
2022/04/06 11:14:59;;;;;;;4.68;2.88;;;14.40;99.90;;;;;;4952180;29;20047;-65
2022/04/06 11:17:32;;;;;;;5.40;2.80;;;14.50;99.90;;;;;;4944102;28;20428;-63
2022/04/06 11:20:17;;;;;;;5.53;2.70;;;14.70;99.90;;;;;;4945382;29;20040;-64
2022/04/06 11:22:53;;;;;;;11.13;2.83;;;15.00;99.90;;;;;;4936519;29;20365;-65
2022/04/06 11:25:27;;;;;;;5.35;2.65;;;15.00;99.90;;;;;;4939352;29;20463;-65
2022/04/06 11:28:06;;;;;;;5.38;2.70;;;14.80;99.90;;;;;;4948951;28;20039;-64
2022/04/06 11:30:34;;;;;;;7.47;2.45;;;14.90;99.90;;;;;;4940131;28;20050;-65
2022/04/06 11:33:03;;;;;;;5.18;2.63;;;14.80;99.90;;;;;;4941178;29;20414;-65
2022/04/06 11:35:35;;;;;;;5.25;2.65;;;15.00;99.90;;;;;;4941018;28;20514;-63
2022/04/06 11:38:07;;;;;;;5.47;2.85;;;15.00;99.90;;;;;;4946243;29;20522;-65
2022/04/06 11:40:42;;;;;;;5.65;3.13;;;14.90;99.90;;;;;;4943772;28;20047;-64
2022/04/06 11:43:09;;;;;;;;;;;15.00;99.90;;;;;;4946504;28;20047;-63
2022/04/06 11:45:44;;;;;;;4.68;2.70;;;14.60;99.90;;;;;;4944634;28;20017;-63
2022/04/06 11:48:12;;;;;;;4.00;2.13;;;14.10;99.90;;;;;;4960248;28;20554;-64
2022/04/06 11:50:41;;;;;;;5.28;2.00;;;14.30;99.90;;;;;;4939855;29;20059;-64
2022/04/06 11:53:09;;;;;;;4.85;2.33;;;14.20;99.90;;;;;;4945909;28;20111;-64
2022/04/06 11:55:48;;;;;;;4.40;2.08;;;14.00;99.90;;;;;;4941701;28;20517;-65
2022/04/06 11:58:38;;;;;;;3.83;2.20;;;14.30;99.90;;;;;;4946574;28;20047;-63
2022/04/06 12:01:10;;;;;;;4.43;2.33;;;14.50;99.90;;;;;;4958519;28;20051;-63
2022/04/06 12:03:39;;;;;;;;;;;14.20;99.90;;;;;;4947137;28;20130;-64
2022/04/06 12:06:09;;;;;;;;;;;14.40;99.90;;;;;;4950325;28;19926;-63
2022/04/06 12:08:38;;;;;;;4.00;2.20;;;14.60;99.90;;;;;;4950239;28;19926;-63
2022/04/06 12:11:05;;;;;;;4.20;2.20;;;14.50;99.90;;;;;;4952730;28;20157;-64
2022/04/06 12:13:35;;;;;;;3.75;1.85;;;14.80;99.90;;;;;;4950921;28;20061;-62
2022/04/06 12:16:04;;;;;;;3.30;1.90;;;15.00;99.90;;;;;;4939822;28;20050;-64
2022/04/06 12:18:33;;;;;;;4.38;2.03;;;15.10;99.90;;;;;;4937559;29;20241;-64
2022/04/06 12:21:00;;;;;;;5.25;1.85;;;15.40;99.90;;;;;;4941159;29;20510;-63
2022/04/06 12:23:29;;;;;;;3.38;1.80;;;15.50;99.90;;;;;;4944124;29;20099;-65
2022/04/06 12:26:07;;;;;;;4.40;1.90;;;15.70;99.90;;;;;;4938241;28;20043;-64
2022/04/06 12:28:35;;;;;;;3.20;1.70;;;15.80;99.90;;;;;;4949798;29;20126;-65
2022/04/06 12:31:05;;;;;;;6.80;1.98;;;15.80;99.90;;;;;;4942564;28;20658;-64
2022/04/06 12:33:38;;;;;;;3.13;1.65;;;15.60;99.90;;;;;;4951881;29;20115;-62
2022/04/06 12:36:17;;;;;;;5.40;1.77;;;15.50;99.90;;;;;;4948499;29;20529;-64
2022/04/06 12:39:14;;;;;;;3.80;1.60;;;15.50;99.90;;;;;;4940826;29;20047;-64
2022/04/06 12:42:04;;;;;;;4.80;1.65;;;15.70;99.90;;;;;;4944153;28;20125;-62
2022/04/06 12:44:34;;;;;;;4.18;1.95;;;15.70;99.90;;;;;;4946593;29;20094;-65
2022/04/06 12:47:02;;;;;;;4.80;2.75;;;15.80;99.90;;;;;;4951264;28;20047;-65
2022/04/06 12:49:42;;;;;;;4.18;1.90;;;15.70;99.90;;;;;;4950958;28;20055;-64
2022/04/06 12:52:27;;;;;;;3.95;1.83;;;15.70;99.90;;;;;;4951082;28;20050;-64
2022/04/06 12:55:06;;;;;;;2.38;1.30;;;15.70;99.90;;;;;;4951440;28;20414;-64
2022/04/06 12:57:38;;;;;;;3.20;1.67;;;16.10;99.90;;;;;;4951418;28;20422;-64
2022/04/06 13:00:13;;;;;;;2.80;1.55;;;16.70;99.90;;;;;;4950477;28;20063;-64
2022/04/06 13:02:48;;;;;;;3.22;1.70;;;17.10;99.90;;;;;;4951375;28;20098;-64
2022/04/06 13:05:20;;;;;;;3.67;1.70;;;17.20;99.90;;;;;;4948296;29;20185;-64
2022/04/06 13:07:50;;;;;;;4.47;1.67;;;17.50;99.90;;;;;;4951765;28;20514;-64
2022/04/06 13:10:28;;;;;;;2.88;1.58;;;17.20;99.90;;;;;;4949180;28;20126;-64
2022/04/06 13:12:57;;;;;;;3.70;1.92;;;16.80;99.90;;;;;;4948142;29;20053;-64